createdAt,value
2018-07-14T00:01:20.490Z,37.00
2018-07-14T00:03:48.886Z,37.00
2018-07-14T00:06:17.327Z,37.20
2018-07-14T00:08:45.842Z,37.00
2018-07-14T00:11:14.285Z,36.90
2018-07-14T00:13:42.808Z,37.00
2018-07-14T00:16:11.221Z,36.90
2018-07-14T00:18:39.576Z,37.10
2018-07-14T00:21:07.977Z,37.10
2018-07-14T00:23:36.306Z,36.90
2018-07-14T00:26:04.678Z,36.50
2018-07-14T00:28:34.062Z,36.60
2018-07-14T00:31:02.446Z,36.70
2018-07-14T00:33:31.279Z,36.80
2018-07-14T00:35:59.671Z,37.10
2018-07-14T00:38:28.585Z,37.10
2018-07-14T00:40:57.100Z,37.10
2018-07-14T00:43:25.424Z,37.00
2018-07-14T00:45:53.793Z,36.60
2018-07-14T00:48:22.208Z,36.40
2018-07-14T00:50:50.579Z,36.40
2018-07-14T00:53:18.921Z,36.30
2018-07-14T00:55:47.339Z,36.40
2018-07-14T00:58:15.751Z,36.30
2018-07-14T01:00:44.099Z,36.30
2018-07-14T01:03:12.449Z,36.30
2018-07-14T01:05:40.794Z,36.40
2018-07-14T01:08:09.267Z,36.60
2018-07-14T01:10:37.612Z,36.60
2018-07-14T01:15:34.131Z,36.40
2018-07-14T01:18:02.516Z,36.30
2018-07-14T01:20:30.919Z,36.20
2018-07-14T01:22:59.261Z,36.10
2018-07-14T01:25:27.630Z,36.60
2018-07-14T01:27:56.009Z,37.10
2018-07-14T01:30:24.393Z,37.20
2018-07-14T01:32:52.757Z,37.40
2018-07-14T01:35:21.147Z,37.40
2018-07-14T01:37:49.533Z,37.60
2018-07-14T01:40:17.919Z,37.50
2018-07-14T01:42:46.315Z,37.40
2018-07-14T01:45:14.729Z,37.30
2018-07-14T01:47:43.068Z,37.30
2018-07-14T01:50:11.829Z,37.40
2018-07-14T01:52:40.255Z,37.40
2018-07-14T01:55:08.643Z,37.40
2018-07-14T01:57:37.081Z,37.50
2018-07-14T02:00:05.409Z,37.50
2018-07-14T02:02:33.805Z,37.40
2018-07-14T02:05:02.230Z,37.00
2018-07-14T02:07:30.728Z,37.30
2018-07-14T02:12:27.168Z,36.90
2018-07-14T02:14:55.611Z,36.90
2018-07-14T02:17:24.105Z,36.90
2018-07-14T02:19:52.539Z,36.70
2018-07-14T02:22:20.920Z,37.10
2018-07-14T02:24:49.289Z,37.40
2018-07-14T02:27:17.849Z,37.50
2018-07-14T02:29:46.223Z,37.30
2018-07-14T02:32:14.654Z,37.20
2018-07-14T02:34:43.068Z,37.00
2018-07-14T02:37:11.445Z,36.70
2018-07-14T02:39:39.788Z,37.10
2018-07-14T02:42:08.245Z,37.50
2018-07-14T02:47:05.604Z,37.20
2018-07-14T02:49:33.982Z,37.00
2018-07-14T02:52:02.357Z,37.00
2018-07-14T02:54:30.843Z,36.80
2018-07-14T02:56:59.227Z,36.70
2018-07-14T02:59:27.906Z,37.00
2018-07-14T03:01:56.327Z,37.00
2018-07-14T03:04:24.739Z,37.00
2018-07-14T03:06:53.257Z,36.60
2018-07-14T03:09:21.659Z,36.50
2018-07-14T03:11:50.140Z,36.30
2018-07-14T03:14:18.491Z,36.40
2018-07-14T03:16:46.831Z,36.30
2018-07-14T03:19:15.193Z,35.90
2018-07-14T03:21:43.664Z,35.90
2018-07-14T03:24:12.002Z,35.90
2018-07-14T03:26:40.391Z,35.90
2018-07-14T03:29:08.852Z,35.90
2018-07-14T03:31:37.178Z,35.90
2018-07-14T03:34:05.969Z,35.90
2018-07-14T03:36:34.433Z,35.90
2018-07-14T03:39:03.064Z,35.90
2018-07-14T03:41:31.480Z,35.90
2018-07-14T03:43:59.844Z,35.90
2018-07-14T03:46:28.343Z,35.80
2018-07-14T03:48:56.805Z,35.60
2018-07-14T03:51:25.220Z,35.80
2018-07-14T03:53:53.564Z,36.20
2018-07-14T03:56:21.975Z,36.30
2018-07-14T03:58:50.432Z,36.80
2018-07-14T04:01:19.234Z,36.50
2018-07-14T04:03:47.584Z,36.50
2018-07-14T04:06:15.990Z,36.30
2018-07-14T04:08:44.478Z,36.70
2018-07-14T04:11:12.985Z,36.50
2018-07-14T04:13:41.322Z,36.70
2018-07-14T04:16:09.758Z,37.20
2018-07-14T04:18:38.174Z,36.40
2018-07-14T04:21:06.916Z,35.90
2018-07-14T04:23:35.312Z,36.00
2018-07-14T04:26:03.672Z,36.30
2018-07-14T04:28:32.034Z,36.60
2018-07-14T04:31:00.510Z,36.80
2018-07-14T04:33:28.958Z,36.90
2018-07-14T04:35:57.315Z,37.00
2018-07-14T04:38:25.630Z,37.00
2018-07-14T04:43:22.013Z,36.80
2018-07-14T04:45:50.364Z,37.10
2018-07-14T04:48:18.738Z,37.00
2018-07-14T04:50:47.078Z,37.00
2018-07-14T04:53:15.505Z,37.00
2018-07-14T04:55:43.866Z,37.60
2018-07-14T04:58:12.238Z,37.00
2018-07-14T05:00:40.710Z,36.80
2018-07-14T05:03:09.217Z,36.80
2018-07-14T05:05:37.606Z,36.80
2018-07-14T05:08:05.972Z,36.60
2018-07-14T05:10:34.453Z,36.70
2018-07-14T05:13:02.824Z,36.80
2018-07-14T05:15:31.388Z,37.20
2018-07-14T05:17:59.828Z,37.40
2018-07-14T05:20:28.204Z,38.50
2018-07-14T05:22:56.542Z,39.00
2018-07-14T05:25:24.968Z,40.00
2018-07-14T05:27:53.409Z,39.90
2018-07-14T05:32:49.918Z,39.20
2018-07-14T05:35:18.395Z,39.30
2018-07-14T05:37:46.749Z,39.30
2018-07-14T05:40:15.268Z,39.10
2018-07-14T05:42:43.646Z,39.10
2018-07-14T05:45:12.004Z,39.20
2018-07-14T05:47:40.370Z,38.80
2018-07-14T05:50:08.748Z,39.50
2018-07-14T05:52:37.216Z,41.30
2018-07-14T05:55:05.548Z,41.40
2018-07-14T05:57:33.922Z,41.40
2018-07-14T06:00:02.500Z,41.70
2018-07-14T06:02:30.893Z,41.80
2018-07-14T06:04:59.261Z,41.10
2018-07-14T06:07:27.606Z,40.70
2018-07-14T06:09:56.082Z,41.10
2018-07-14T06:12:24.454Z,40.70
2018-07-14T06:14:52.875Z,40.30
2018-07-14T06:17:21.314Z,40.00
2018-07-14T06:19:49.616Z,40.20
2018-07-14T06:22:18.149Z,40.00
2018-07-14T06:24:46.693Z,40.20
2018-07-14T06:27:15.061Z,40.40
2018-07-14T06:29:43.502Z,40.80
2018-07-14T06:32:11.909Z,40.10
2018-07-14T06:34:40.315Z,40.00
2018-07-14T06:37:08.811Z,40.30
2018-07-14T06:39:37.146Z,39.50
2018-07-14T06:42:05.670Z,41.00
2018-07-14T06:44:34.149Z,40.80
2018-07-14T06:49:30.614Z,41.40
2018-07-14T06:51:59.076Z,41.50
2018-07-14T06:54:27.657Z,40.30
2018-07-14T06:56:56.078Z,40.30
2018-07-14T06:59:24.484Z,40.00
2018-07-14T07:01:52.893Z,40.30
2018-07-14T07:04:21.438Z,40.30
2018-07-14T07:06:49.888Z,40.00
2018-07-14T07:09:18.299Z,39.90
2018-07-14T07:11:46.638Z,39.90
2018-07-14T07:16:43.234Z,39.60
2018-07-14T07:19:11.630Z,39.70
2018-07-14T07:21:40.049Z,40.00
2018-07-14T07:26:36.836Z,39.80
2018-07-14T07:29:05.514Z,39.70
2018-07-14T07:31:33.950Z,39.70
2018-07-14T07:34:02.886Z,39.60
2018-07-14T07:36:31.390Z,39.50
2018-07-14T07:38:59.938Z,39.50
2018-07-14T07:41:28.325Z,39.40
2018-07-14T07:43:56.682Z,39.40
2018-07-14T07:48:53.138Z,39.60
2018-07-14T07:51:21.541Z,39.00
2018-07-14T07:53:50.078Z,39.20
2018-07-14T07:56:18.502Z,39.40
2018-07-14T07:58:46.897Z,39.20
2018-07-14T08:01:15.447Z,38.20
2018-07-14T08:03:43.966Z,38.00
2018-07-14T08:06:12.327Z,37.80
2018-07-14T08:08:40.779Z,37.80
2018-07-14T08:11:09.283Z,37.50
2018-07-14T08:13:37.724Z,37.10
2018-07-14T08:16:06.138Z,37.10
2018-07-14T08:18:34.621Z,37.80
2018-07-14T08:21:03.105Z,37.20
2018-07-14T08:23:31.494Z,36.80
2018-07-14T08:26:00.458Z,37.00
2018-07-14T08:28:28.848Z,36.80
2018-07-14T08:30:57.296Z,36.80
2018-07-14T08:33:25.756Z,36.80
2018-07-14T08:35:54.103Z,37.50
2018-07-14T08:38:22.506Z,36.80
2018-07-14T08:40:50.914Z,36.80
2018-07-14T08:43:19.274Z,36.80
2018-07-14T08:45:47.758Z,36.80
2018-07-14T08:48:16.263Z,36.80
2018-07-14T08:50:44.648Z,36.80
2018-07-14T08:53:13.134Z,36.80
2018-07-14T08:55:41.502Z,36.80
2018-07-14T08:58:10.050Z,36.80
2018-07-14T09:00:38.432Z,37.50
2018-07-14T09:03:07.150Z,36.80
2018-07-14T09:05:35.538Z,36.80
2018-07-14T09:08:04.071Z,36.90
2018-07-14T09:10:32.570Z,36.80
2018-07-14T09:13:00.978Z,36.80
2018-07-14T09:15:29.332Z,37.40
2018-07-14T09:20:25.787Z,37.90
2018-07-14T09:22:54.128Z,38.10
2018-07-14T09:25:22.604Z,38.70
2018-07-14T09:27:51.016Z,38.00
2018-07-14T09:30:19.416Z,37.40
2018-07-14T09:32:47.833Z,37.20
2018-07-14T09:35:16.203Z,36.80
2018-07-14T09:37:44.549Z,36.80
2018-07-14T09:40:12.979Z,35.70
2018-07-14T09:42:41.411Z,34.40
2018-07-14T09:47:37.976Z,34.80
2018-07-14T09:50:06.389Z,34.80
2018-07-14T09:52:34.807Z,32.60
2018-07-14T09:55:03.249Z,33.00
2018-07-14T09:57:31.607Z,33.50
2018-07-14T09:59:59.919Z,34.40
2018-07-14T10:02:28.444Z,35.30
2018-07-14T10:04:56.901Z,35.30
2018-07-14T10:07:25.312Z,33.20
2018-07-14T10:09:53.715Z,32.70
2018-07-14T10:12:22.168Z,31.10
2018-07-14T10:14:50.782Z,32.50
2018-07-14T10:17:19.188Z,30.90
2018-07-14T10:19:47.783Z,31.00
2018-07-14T10:22:16.450Z,31.00
2018-07-14T10:24:44.798Z,31.00
2018-07-14T10:27:13.177Z,31.70
2018-07-14T10:29:41.659Z,31.00
2018-07-14T10:32:10.245Z,31.10
2018-07-14T10:34:38.660Z,31.00
2018-07-14T10:37:07.104Z,31.40
2018-07-14T10:39:35.520Z,31.10
2018-07-14T10:42:03.890Z,31.10
2018-07-14T10:44:32.290Z,31.80
2018-07-14T10:47:00.980Z,31.10
2018-07-14T10:49:29.319Z,31.10
2018-07-14T10:51:57.676Z,31.10
2018-07-14T10:54:26.316Z,31.10
2018-07-14T10:56:54.688Z,31.10
2018-07-14T11:01:57.202Z,31.10
2018-07-14T11:04:25.795Z,30.80
2018-07-14T11:06:54.194Z,29.90
2018-07-14T11:09:22.630Z,31.10
2018-07-14T11:11:51.095Z,31.10
2018-07-14T11:14:19.551Z,30.90
2018-07-14T11:16:47.941Z,31.10
2018-07-14T11:19:16.530Z,31.10
2018-07-14T11:21:44.927Z,31.10
2018-07-14T11:24:13.397Z,31.10
2018-07-14T11:26:41.792Z,30.90
2018-07-14T11:29:10.264Z,30.00
2018-07-14T11:31:38.731Z,29.90
2018-07-14T11:34:07.169Z,30.00
2018-07-14T11:36:35.630Z,29.50
2018-07-14T11:39:04.687Z,29.50
2018-07-14T11:41:33.133Z,29.20
2018-07-14T11:44:01.731Z,29.20
2018-07-14T11:46:30.456Z,29.50
2018-07-14T11:48:58.897Z,29.60
2018-07-14T11:51:27.365Z,29.50
2018-07-14T11:53:55.924Z,28.90
2018-07-14T11:56:24.319Z,28.30
2018-07-14T11:58:52.656Z,28.70
2018-07-14T12:01:21.189Z,29.50
2018-07-14T12:03:49.567Z,28.60
2018-07-14T12:06:18.148Z,29.30
2018-07-14T12:08:46.577Z,29.10
2018-07-14T12:11:14.929Z,29.00
2018-07-14T12:13:43.327Z,29.20
2018-07-14T12:16:11.725Z,27.90
2018-07-14T12:18:40.109Z,27.40
2018-07-14T12:21:08.565Z,27.80
2018-07-14T12:23:36.947Z,28.20
2018-07-14T12:26:05.349Z,28.20
2018-07-14T12:28:33.673Z,27.60
2018-07-14T12:31:02.146Z,28.00
2018-07-14T12:33:30.485Z,28.60
2018-07-14T12:35:58.983Z,28.80
2018-07-14T12:38:27.375Z,29.20
2018-07-14T12:40:55.717Z,29.10
2018-07-14T12:43:24.281Z,28.80
2018-07-14T12:45:52.605Z,29.00
2018-07-14T12:48:21.089Z,29.00
2018-07-14T12:50:49.524Z,29.30
2018-07-14T12:53:17.899Z,28.80
2018-07-14T12:55:46.354Z,28.00
2018-07-14T12:58:14.842Z,28.90
2018-07-14T13:00:43.259Z,28.00
2018-07-14T13:03:11.673Z,28.70
2018-07-14T13:05:40.022Z,28.80
2018-07-14T13:08:08.419Z,28.90
2018-07-14T13:10:36.813Z,28.40
2018-07-14T13:13:05.486Z,29.20
2018-07-14T13:15:33.878Z,27.10
2018-07-14T13:18:02.324Z,27.80
2018-07-14T13:20:30.734Z,28.50
2018-07-14T13:25:27.217Z,27.80
2018-07-14T13:27:55.963Z,26.90
2018-07-14T13:30:24.469Z,26.50
2018-07-14T13:32:52.926Z,27.30
2018-07-14T13:35:21.375Z,27.50
2018-07-14T13:37:49.866Z,26.90
2018-07-14T13:40:18.293Z,27.10
2018-07-14T13:42:46.650Z,27.60
2018-07-14T13:45:16.371Z,27.50
2018-07-14T13:47:45.103Z,27.30
2018-07-14T13:50:13.499Z,27.20
2018-07-14T13:52:42.197Z,26.60
2018-07-14T13:55:10.621Z,27.20
2018-07-14T13:57:39.565Z,26.60
2018-07-14T14:00:08.629Z,26.70
2018-07-14T14:02:37.416Z,26.60
2018-07-14T14:05:06.008Z,26.80
2018-07-14T14:07:34.805Z,26.70
2018-07-14T14:10:03.192Z,26.70
2018-07-14T14:12:31.837Z,26.00
2018-07-14T14:15:00.357Z,26.70
2018-07-14T14:17:28.723Z,26.80
2018-07-14T14:19:57.219Z,25.80
2018-07-14T14:22:25.759Z,25.90
2018-07-14T14:24:54.105Z,26.70
2018-07-14T14:27:22.737Z,26.60
2018-07-14T14:29:51.126Z,26.70
2018-07-14T14:32:19.551Z,26.70
2018-07-14T14:34:47.994Z,26.60
2018-07-14T14:37:16.433Z,27.50
2018-07-14T14:39:44.810Z,27.30
2018-07-14T14:42:13.177Z,27.50
2018-07-14T14:44:41.577Z,27.30
2018-07-14T14:47:10.002Z,27.70
2018-07-14T14:49:38.400Z,27.70
2018-07-14T14:52:06.733Z,26.50
2018-07-14T14:54:35.319Z,27.30
2018-07-14T14:57:03.718Z,26.50
2018-07-14T14:59:32.109Z,26.50
2018-07-14T15:02:00.662Z,27.60
2018-07-14T15:06:57.438Z,28.10
2018-07-14T15:09:25.819Z,27.90
2018-07-14T15:11:54.325Z,27.40
2018-07-14T15:14:22.722Z,26.40
2018-07-14T15:16:51.115Z,27.70
2018-07-14T15:19:19.685Z,29.10
2018-07-14T15:21:48.191Z,29.60
2018-07-14T15:24:16.661Z,29.90
2018-07-14T15:26:45.046Z,29.80
2018-07-14T15:29:13.669Z,29.70
2018-07-14T15:31:42.071Z,30.70
2018-07-14T15:34:10.553Z,29.90
2018-07-14T15:36:39.264Z,29.90
2018-07-14T15:39:08.433Z,29.90
2018-07-14T15:41:37.026Z,30.30
2018-07-14T15:44:05.483Z,31.30
2018-07-14T15:46:33.861Z,31.30
2018-07-14T15:49:02.237Z,31.40
2018-07-14T15:51:30.673Z,31.40
2018-07-14T15:53:59.083Z,31.30
2018-07-14T15:56:27.676Z,31.30
2018-07-14T15:58:56.048Z,30.20
2018-07-14T16:01:24.421Z,30.00
2018-07-14T16:03:52.779Z,30.40
2018-07-14T16:06:21.535Z,31.30
2018-07-14T16:08:49.938Z,31.30
2018-07-14T16:11:18.285Z,32.00
2018-07-14T16:13:46.646Z,31.20
2018-07-14T16:16:15.059Z,31.30
2018-07-14T16:18:43.439Z,31.30
2018-07-14T16:21:11.825Z,31.30
2018-07-14T16:23:40.204Z,30.30
2018-07-14T16:26:08.529Z,30.00
2018-07-14T16:28:37.079Z,29.90
2018-07-14T16:31:05.675Z,30.20
2018-07-14T16:33:34.012Z,30.30
2018-07-14T16:36:02.360Z,31.10
2018-07-14T16:38:30.714Z,30.70
2018-07-14T16:40:59.087Z,30.60
2018-07-14T16:43:27.975Z,30.20
2018-07-14T16:45:56.314Z,30.00
2018-07-14T16:48:24.716Z,30.00
2018-07-14T16:50:53.160Z,29.50
2018-07-14T16:53:21.530Z,29.10
2018-07-14T16:55:49.885Z,28.70
2018-07-14T16:58:18.435Z,28.40
2018-07-14T17:00:46.896Z,28.30
2018-07-14T17:03:15.314Z,28.20
2018-07-14T17:05:43.837Z,27.00
2018-07-14T17:10:40.378Z,26.70
2018-07-14T17:13:08.827Z,26.60
2018-07-14T17:15:37.209Z,26.70
2018-07-14T17:18:05.559Z,26.00
2018-07-14T17:20:33.934Z,26.60
2018-07-14T17:23:02.281Z,26.60
2018-07-14T17:25:30.639Z,26.60
2018-07-14T17:27:59.170Z,26.60
2018-07-14T17:30:27.540Z,26.60
2018-07-14T17:32:55.880Z,26.60
2018-07-14T17:35:24.226Z,26.50
2018-07-14T17:37:52.678Z,27.10
2018-07-14T17:40:21.074Z,26.50
2018-07-14T17:42:49.480Z,26.50
2018-07-14T17:45:17.920Z,26.50
2018-07-14T17:47:46.338Z,26.50
2018-07-14T17:50:14.852Z,26.50
2018-07-14T17:52:43.246Z,26.50
2018-07-14T17:55:11.708Z,26.50
2018-07-14T17:57:40.200Z,26.50
2018-07-14T18:00:08.641Z,26.50
2018-07-14T18:02:37.196Z,26.50
2018-07-14T18:05:05.861Z,26.50
2018-07-14T18:07:34.472Z,26.80
2018-07-14T18:10:03.124Z,27.00
2018-07-14T18:12:31.523Z,27.20
2018-07-14T18:14:59.926Z,27.20
2018-07-14T18:17:28.335Z,27.50
2018-07-14T18:19:56.664Z,27.90
2018-07-14T18:22:25.071Z,27.60
2018-07-14T18:24:53.482Z,27.50
2018-07-14T18:27:21.916Z,27.70
2018-07-14T18:29:50.424Z,27.70
2018-07-14T18:32:18.917Z,27.90
2018-07-14T18:34:47.550Z,27.80
2018-07-14T18:37:16.002Z,28.10
2018-07-14T18:39:44.450Z,27.90
2018-07-14T18:42:12.806Z,28.20
2018-07-14T18:44:41.227Z,28.20
2018-07-14T18:47:09.656Z,28.40
2018-07-14T18:49:38.128Z,28.30
2018-07-14T18:52:07.133Z,28.70
2018-07-14T18:54:35.614Z,29.00
2018-07-14T18:57:04.282Z,29.20
2018-07-14T18:59:35.679Z,29.20
2018-07-14T19:02:04.047Z,29.50
2018-07-14T19:04:32.408Z,29.70
2018-07-14T19:07:00.763Z,30.20
2018-07-14T19:09:29.211Z,29.80
2018-07-14T19:11:57.670Z,30.00
2018-07-14T19:14:26.013Z,30.00
2018-07-14T19:16:54.317Z,30.30
2018-07-14T19:19:22.766Z,30.80
2018-07-14T19:21:51.221Z,30.30
2018-07-14T19:24:19.644Z,31.20
2018-07-14T19:26:48.013Z,31.20
2018-07-14T19:29:16.359Z,31.10
2018-07-14T19:31:44.774Z,31.10
2018-07-14T19:34:13.195Z,31.20
2018-07-14T19:36:41.746Z,31.20
2018-07-14T19:39:10.115Z,31.20
2018-07-14T19:41:38.500Z,31.20
2018-07-14T19:44:06.929Z,31.10
2018-07-14T19:46:35.350Z,31.90
2018-07-14T19:49:03.863Z,31.10
2018-07-14T19:51:32.264Z,31.10
2018-07-14T19:54:00.623Z,31.10
2018-07-14T19:56:29.125Z,31.10
2018-07-14T19:58:57.478Z,31.10
2018-07-14T20:01:25.825Z,31.10
2018-07-14T20:03:54.232Z,31.10
2018-07-14T20:06:22.803Z,31.10
2018-07-14T20:08:51.374Z,31.30
2018-07-14T20:11:19.766Z,31.60
2018-07-14T20:16:16.268Z,33.20
2018-07-14T20:18:44.684Z,32.50
2018-07-14T20:21:13.099Z,32.40
2018-07-14T20:23:41.507Z,32.90
2018-07-14T20:26:10.054Z,32.90
2018-07-14T20:28:38.426Z,32.80
2018-07-14T20:31:06.886Z,32.90
2018-07-14T20:33:35.224Z,33.20
2018-07-14T20:36:03.638Z,33.10
2018-07-14T20:38:32.036Z,33.10
2018-07-14T20:41:00.366Z,33.30
2018-07-14T20:43:28.705Z,33.60
2018-07-14T20:45:57.050Z,33.80
2018-07-14T20:48:25.394Z,33.50
2018-07-14T20:50:53.741Z,34.00
2018-07-14T20:53:22.180Z,33.90
2018-07-14T20:55:50.524Z,33.80
2018-07-14T20:58:19.043Z,34.10
2018-07-14T21:00:47.651Z,34.20
2018-07-14T21:05:44.220Z,34.00
2018-07-14T21:08:12.731Z,34.10
2018-07-14T21:10:41.114Z,34.10
2018-07-14T21:13:09.645Z,34.40
2018-07-14T21:15:38.222Z,34.30
2018-07-14T21:18:06.869Z,34.40
2018-07-14T21:20:35.277Z,34.60
2018-07-14T21:23:03.772Z,34.80
2018-07-14T21:25:32.159Z,35.60
2018-07-14T21:28:00.799Z,35.50
2018-07-14T21:30:29.285Z,35.10
2018-07-14T21:32:57.772Z,35.90
2018-07-14T21:35:26.197Z,35.70
2018-07-14T21:37:54.840Z,36.60
2018-07-14T21:40:23.329Z,35.60
2018-07-14T21:42:51.713Z,36.10
2018-07-14T21:45:20.092Z,35.70
2018-07-14T21:47:48.634Z,36.20
2018-07-14T21:50:17.011Z,35.70
2018-07-14T21:52:45.455Z,36.70
2018-07-14T21:55:13.868Z,36.20
2018-07-14T21:57:42.248Z,36.60
2018-07-14T22:00:20.689Z,36.00
2018-07-14T22:02:49.025Z,36.20
2018-07-14T22:05:17.351Z,35.90
2018-07-14T22:07:45.801Z,35.80
2018-07-14T22:10:14.150Z,36.30
2018-07-14T22:12:42.505Z,35.50
2018-07-14T22:15:10.942Z,35.50
2018-07-14T22:17:39.359Z,35.50
2018-07-14T22:20:07.838Z,36.30
2018-07-14T22:25:04.782Z,35.10
2018-07-14T22:27:33.182Z,35.40
2018-07-14T22:30:01.616Z,35.60
2018-07-14T22:32:31.925Z,35.50
2018-07-14T22:35:00.599Z,35.90
2018-07-14T22:37:29.071Z,35.50
2018-07-14T22:39:57.445Z,35.20
2018-07-14T22:42:25.843Z,35.00
2018-07-14T22:44:54.229Z,35.30
2018-07-14T22:47:22.593Z,35.80
2018-07-14T22:49:51.010Z,35.00
2018-07-14T22:52:19.369Z,35.20
2018-07-14T22:54:47.802Z,34.90
2018-07-14T22:57:16.171Z,35.20
2018-07-14T22:59:44.575Z,35.30
2018-07-14T23:02:13.022Z,35.10
2018-07-14T23:04:41.426Z,35.40
2018-07-14T23:09:38.378Z,35.50
2018-07-14T23:12:06.846Z,36.00
2018-07-14T23:14:35.231Z,35.80
2018-07-14T23:17:03.645Z,36.10
2018-07-14T23:19:32.071Z,36.60
2018-07-14T23:22:00.405Z,36.00
2018-07-14T23:24:28.863Z,35.90
2018-07-14T23:26:57.213Z,36.30
2018-07-14T23:29:25.547Z,36.30
2018-07-14T23:31:53.926Z,36.50
2018-07-14T23:34:22.372Z,36.50
2018-07-14T23:39:18.899Z,37.10
2018-07-14T23:41:47.404Z,36.50
2018-07-14T23:44:15.748Z,36.40
2018-07-14T23:46:44.121Z,36.30
2018-07-14T23:49:12.572Z,36.30
2018-07-14T23:51:40.908Z,36.40
2018-07-14T23:54:09.313Z,36.30
2018-07-14T23:56:37.727Z,36.40
2018-07-14T23:59:06.100Z,36.50
